STS Pogoria — SQKY — position and weather

sailwx.info

Track history (hours):
 
Tides and Currents Weather Stations Pressure Air Temp Water Temp Dewpoint Dewpoint Depression Visibility Wind Speed Wind Dir Waves Ship Positions

STS Pogoria

Last reported at 2019-Apr-25 15:29 UTC. Time now 2019-Apr-25 15:49 UTC.
Position N 43°42' E 007°17'.

Length 47 m.

Type: Sailing vessel. MMSI: 261146000.

Date/timePositionNaut miles runAvg speedWind from/ knotsBaromVisibWave heightAir tempDewpointWater temp
2019-Apr-25 15:29N 43°42' E 007°17'0 0.0
2019-Apr-25 14:59N 43°42' E 007°17'0 0.0
2019-Apr-25 14:29N 43°42' E 007°17'0 0.0
2019-Apr-25 13:59N 43°42' E 007°17'0 0.0
2019-Apr-25 13:29N 43°42' E 007°17'0 0.0
2019-Apr-25 12:59N 43°42' E 007°17'0 0.0
2019-Apr-25 12:29N 43°42' E 007°17'1 1.2
2019-Apr-25 12:01N 43°41' E 007°17'2 2.9
2019-Apr-25 11:28N 43°40' E 007°18'0 0.8
2019-Apr-25 10:58N 43°40' E 007°19'0 0.6
2019-Apr-25 10:31N 43°40' E 007°19'1 2.9
2019-Apr-25 10:00N 43°41' E 007°19'1 1.0
2019-Apr-25 09:31N 43°42' E 007°19'2 3.8
2019-Apr-25 09:00N 43°40' E 007°19'3 5.6
2019-Apr-25 08:30N 43°37' E 007°19'3 5.8
2019-Apr-25 08:00N 43°35' E 007°21'3 5.7
2019-Apr-25 07:30N 43°32' E 007°23'3 5.6
2019-Apr-25 07:00N 43°29' E 007°24'3 5.6
2019-Apr-25 06:30N 43°27' E 007°26'3 5.5
2019-Apr-25 06:00N 43°25' E 007°29'2 4.5
2019-Apr-25 05:30N 43°23' E 007°30'2 4.6
2019-Apr-25 05:00N 43°21' E 007°32'2 4.5
2019-Apr-25 04:30N 43°19' E 007°33'2 4.7
2019-Apr-25 04:00N 43°17' E 007°35'2 4.5
2019-Apr-25 03:29N 43°15' E 007°36'2 4.5
2019-Apr-25 03:00N 43°13' E 007°37'2 4.4
2019-Apr-25 02:30N 43°11' E 007°39'2 4.3
2019-Apr-25 02:00N 43°09' E 007°40'2 4.2
2019-Apr-25 01:30N 43°07' E 007°41'5 4.4
2019-Apr-25 00:18N 43°02' E 007°44'3 4.5
2019-Apr-24 23:36N 42°60' E 007°47'0 1.1
2019-Apr-24 23:26N 42°60' E 007°47'0 0.7
2019-Apr-24 22:55N 42°59' E 007°47'  
2019-Apr-17 20:33N 42°38' E 010°50'5 3.4
2019-Apr-17 18:58N 42°41' E 010°44'17 4.0
2019-Apr-17 14:47N 42°52' E 010°27'6 0.2
2019-Apr-16 07:01N 42°51' E 010°19'0 2.3
2019-Apr-16 07:00N 42°51' E 010°19'0 0.1
2019-Apr-16 06:09N 42°51' E 010°19'14 5.5
2019-Apr-16 03:31N 43°03' E 010°07'1 5.5
2019-Apr-16 03:25N 43°03' E 010°07'3 5.5
2019-Apr-16 02:58N 43°05' E 010°05'9 5.9
2019-Apr-16 01:23N 43°13' E 009°57'3 5.9
2019-Apr-16 00:48N 43°15' E 009°54'2 5.8
2019-Apr-16 00:27N 43°17' E 009°53'3 6.0
2019-Apr-15 23:59N 43°19' E 009°50'3 6.0
2019-Apr-15 23:27N 43°21' E 009°47'3 6.2
2019-Apr-15 23:00N 43°24' E 009°46'3 6.1
2019-Apr-15 22:30N 43°27' E 009°45'3 6.2
2019-Apr-15 22:00N 43°30' E 009°46'3 6.1
2019-Apr-15 21:30N 43°33' E 009°47'3 6.5
2019-Apr-15 21:00N 43°36' E 009°48'3 6.7
2019-Apr-15 20:31N 43°39' E 009°49'3 6.6
2019-Apr-15 20:00N 43°43' E 009°50'3 6.5
2019-Apr-15 19:30N 43°46' E 009°51'3 6.6
2019-Apr-15 19:01N 43°49' E 009°52'3 6.6
2019-Apr-15 18:30N 43°52' E 009°53'3 6.4
2019-Apr-15 18:00N 43°55' E 009°54'1 2.2
2019-Apr-15 17:30N 43°56' E 009°54'1 2.5
2019-Apr-15 17:00N 43°58' E 009°54'1 2.4
2019-Apr-15 16:30N 43°59' E 009°54'1 2.1
2019-Apr-15 16:00N 43°60' E 009°54'1 2.6
2019-Apr-15 15:30N 44°01' E 009°53'  
Track history (hours):
 
Tides and Currents Weather Stations Pressure Air Temp Water Temp Dewpoint Dewpoint Depression Visibility Wind Speed Wind Dir Waves Ship Positions

STS Pogoria

Last reported at 2019-Apr-25 15:29 UTC. Time now 2019-Apr-25 15:49 UTC.
Position N 43°42' E 007°17'.

Length 47 m.

Type: Sailing vessel. MMSI: 261146000.

Date/timePositionNaut miles runAvg speedWind from/ knotsBaromVisibWave heightAir tempDewpointWater temp
2019-Apr-25 15:29N 43°42' E 007°17'0 0.0
2019-Apr-25 14:59N 43°42' E 007°17'0 0.0
2019-Apr-25 14:29N 43°42' E 007°17'0 0.0
2019-Apr-25 13:59N 43°42' E 007°17'0 0.0
2019-Apr-25 13:29N 43°42' E 007°17'0 0.0
2019-Apr-25 12:59N 43°42' E 007°17'0 0.0
2019-Apr-25 12:29N 43°42' E 007°17'1 1.2
2019-Apr-25 12:01N 43°41' E 007°17'2 2.9
2019-Apr-25 11:28N 43°40' E 007°18'0 0.8
2019-Apr-25 10:58N 43°40' E 007°19'0 0.6
2019-Apr-25 10:31N 43°40' E 007°19'1 2.9
2019-Apr-25 10:00N 43°41' E 007°19'1 1.0
2019-Apr-25 09:31N 43°42' E 007°19'2 3.8
2019-Apr-25 09:00N 43°40' E 007°19'3 5.6
2019-Apr-25 08:30N 43°37' E 007°19'3 5.8
2019-Apr-25 08:00N 43°35' E 007°21'3 5.7
2019-Apr-25 07:30N 43°32' E 007°23'3 5.6
2019-Apr-25 07:00N 43°29' E 007°24'3 5.6
2019-Apr-25 06:30N 43°27' E 007°26'3 5.5
2019-Apr-25 06:00N 43°25' E 007°29'2 4.5
2019-Apr-25 05:30N 43°23' E 007°30'2 4.6
2019-Apr-25 05:00N 43°21' E 007°32'2 4.5
2019-Apr-25 04:30N 43°19' E 007°33'2 4.7
2019-Apr-25 04:00N 43°17' E 007°35'2 4.5
2019-Apr-25 03:29N 43°15' E 007°36'2 4.5
2019-Apr-25 03:00N 43°13' E 007°37'2 4.4
2019-Apr-25 02:30N 43°11' E 007°39'2 4.3
2019-Apr-25 02:00N 43°09' E 007°40'2 4.2
2019-Apr-25 01:30N 43°07' E 007°41'5 4.4
2019-Apr-25 00:18N 43°02' E 007°44'3 4.5
2019-Apr-24 23:36N 42°60' E 007°47'0 1.1
2019-Apr-24 23:26N 42°60' E 007°47'0 0.7
2019-Apr-24 22:55N 42°59' E 007°47'  
2019-Apr-17 20:33N 42°38' E 010°50'5 3.4
2019-Apr-17 18:58N 42°41' E 010°44'17 4.0
2019-Apr-17 14:47N 42°52' E 010°27'6 0.2
2019-Apr-16 07:01N 42°51' E 010°19'0 2.3
2019-Apr-16 07:00N 42°51' E 010°19'0 0.1
2019-Apr-16 06:09N 42°51' E 010°19'14 5.5
2019-Apr-16 03:31N 43°03' E 010°07'1 5.5
2019-Apr-16 03:25N 43°03' E 010°07'3 5.5
2019-Apr-16 02:58N 43°05' E 010°05'9 5.9
2019-Apr-16 01:23N 43°13' E 009°57'3 5.9
2019-Apr-16 00:48N 43°15' E 009°54'2 5.8
2019-Apr-16 00:27N 43°17' E 009°53'3 6.0
2019-Apr-15 23:59N 43°19' E 009°50'3 6.0
2019-Apr-15 23:27N 43°21' E 009°47'3 6.2
2019-Apr-15 23:00N 43°24' E 009°46'3 6.1
2019-Apr-15 22:30N 43°27' E 009°45'3 6.2
2019-Apr-15 22:00N 43°30' E 009°46'3 6.1
2019-Apr-15 21:30N 43°33' E 009°47'3 6.5
2019-Apr-15 21:00N 43°36' E 009°48'3 6.7
2019-Apr-15 20:31N 43°39' E 009°49'3 6.6
2019-Apr-15 20:00N 43°43' E 009°50'3 6.5
2019-Apr-15 19:30N 43°46' E 009°51'3 6.6
2019-Apr-15 19:01N 43°49' E 009°52'3 6.6
2019-Apr-15 18:30N 43°52' E 009°53'3 6.4
2019-Apr-15 18:00N 43°55' E 009°54'1 2.2
2019-Apr-15 17:30N 43°56' E 009°54'1 2.5
2019-Apr-15 17:00N 43°58' E 009°54'1 2.4
2019-Apr-15 16:30N 43°59' E 009°54'1 2.1
2019-Apr-15 16:00N 43°60' E 009°54'1 2.6
2019-Apr-15 15:30N 44°01' E 009°53'  

Dump ship's entire track history